This is the latest recevied weather packets stored in our database for station/object KC1TWD. If no packets are shown the sender has not sent any weather packets the latest 10 day(s).
| Time | Temp. | Humidity | Pressure | Rain* | Wind** | Luminosity | Snow |
|---|---|---|---|---|---|---|---|
| 1777476038 | 14.44° C | 59% | 1015.6 hPa | 0 mm | - | - | - |
| 1777475734 | 13.89° C | 60% | 1015.8 hPa | 0 mm | - | - | - |
| 1777475431 | 15° C | 58% | 1016 hPa | 0 mm | - | - | - |
| 1777475126 | 13.89° C | 59% | 1016 hPa | 0 mm | - | - | - |
| 1777474823 | 13.33° C | 60% | 1016 hPa | 0 mm | - | - | - |
| 1777474518 | 13.89° C | 58% | 1015.8 hPa | 0 mm | - | - | - |
| 1777474215 | 13.33° C | 60% | 1016.3 hPa | 0 mm | - | - | - |
| 1777473913 | 13.33° C | 60% | 1016.4 hPa | 0 mm | - | - | - |
| 1777473611 | 13.89° C | 60% | 1016.6 hPa | 0 mm | - | - | - |
| 1777473306 | 13.89° C | 59% | 1016.5 hPa | 0 mm | - | - | - |
| 1777473002 | 13.33° C | 60% | 1016.6 hPa | 0 mm | - | - | - |
| 1777472699 | 13.33° C | 61% | 1016.6 hPa | 0 mm | - | - | - |
| 1777472395 | 12.78° C | 60% | 1016.7 hPa | 0 mm | - | - | - |
| 1777472094 | 12.22° C | 63% | 1016.7 hPa | 0 mm | - | - | - |
| 1777471794 | 12.22° C | 63% | 1017.2 hPa | 0 mm | - | - | - |
| 1777471490 | 12.22° C | 63% | 1017.1 hPa | 0 mm | - | - | - |
| 1777471187 | 12.22° C | 63% | 1017.7 hPa | 0 mm | - | - | - |
| 1777470884 | 11.67° C | 63% | 1017.6 hPa | 0 mm | - | - | - |
| 1777470581 | 11.67° C | 63% | 1017.7 hPa | 0 mm | - | - | - |
| 1777470277 | 11.11° C | 66% | 1017.5 hPa | 0 mm | - | - | - |
| 1777469973 | 11.67° C | 65% | 1017.7 hPa | 0 mm | - | - | - |
| 1777469669 | 11.67° C | 65% | 1017.5 hPa | 0 mm | - | - | - |
| 1777469365 | 11.67° C | 65% | 1017.6 hPa | 0 mm | - | - | - |
| 1777469061 | 10.56° C | 67% | 1017.7 hPa | 0 mm | - | - | - |
| 1777468756 | 11.11° C | 67% | 1017.7 hPa | 0 mm | - | - | - |
* Rain latest hour (hover to see other rain measurements)
** Current wind speed in m/s (hover to see current wind gust speed)